Peoria, AZ

10:13 AM MST on October 02, 2014 (GMT -0700)
Glendale Community College | Change Station
CLOSE
Current Station
Personal Weather Station
Location: Glendale, AZ
Elevation: 1173 ft
Nearby Weather Stations

Elev 1173 ft 33.57 °N, 112.19 °W | Updated 15 seconds ago

Clear
Clear
81.1 °F
Feels Like 79 °F
N
1.0
Wind Variable Wind from NNE
Gusts 1.0 mph

Today
High -- | Low -- °F
--% Chance of Precip.
Yesterday
High -- | Low -- °F
Precip. -- in
6:23 AM 6:11 PM
First Quarter, 60% visible
Pressure 30.06 in
Visibility 20.0 miles
Clouds Clear
Heat Index 79 °F
Dew Point 36 °F
Humidity 20%
Rainfall 0.00 in
Snow Depth 0 in , 0 in , 1 in
UV 2.2 out of 12
Pollen 6.40 out of 12
Ozone Good
PM2.5 Good
Flu Activity Not available.
METAR KGEU 021647Z 01008KT 20SM SKC 27/03 A3006

More Conditions Fewer Conditions

Pressure 30.06 in
Visibility 20.0 miles
Clouds Clear
Heat Index 79 °F
Dew Point 36 °F
Humidity 20%
Rainfall 0.00 in
Snow Depth 0 in , 0 in , 1 in
UV 2.2 out of 12
Pollen 6.40 out of 12
Ozone Good
PM2.5 Good
Flu Activity Not available.
METAR KGEU 021647Z 01008KT 20SM SKC 27/03 A3006

More Conditions Fewer Conditions

10-Day Weather Forecast

Almanac

Astronomy

Oct. 02, 2014 Rise Set
Actual Time 6:23 AM MST 6:11 PM MST
Civil Twilight 5:59 AM MST 6:36 PM MST
Nautical Twilight 5:30 AM MST 7:05 PM MST
Astronomical Twilight 5:01 AM MST 7:34 PM MST
Moon 2:06 PM MST 12:00 AM MST
Length of Visible Light 12h 37m
Length of Day
11h 47m
Tomorrow will be 2m 4s shorter.
First Quarter, 60% of the Moon is Illuminated
Today
First Quarter
Oct 8
Full
Oct 15
Last Quarter
Oct 23
New
Oct 30
First Quarter

Today's Extremes

State Highs State Lows

Community

WunderPhotos

Upload Photos

1,758,300 photos uploaded!

Nearby

Air Quality

  Air Quality AQ Index Pollutant
Yesterday Moderate
OZONE
Yesterday Good
PM10
Current Good
PM2.5
Current Good
OZONE
Thursday Moderate
OZONE
Thursday Good
PM10
Thursday Good
CO
Friday Good
OZONE
Friday Good
PM10
Friday Good
CO

Snow Depth

Station Depth Elevation
Wildcat 0 in 7850 ft
Fry 0 in 7200 ft
Workman Creek 1 in 6900 ft
Snowslide Canyon 1 in 9730 ft
Promontory 1 in 7930 ft

Earthquake Activity

City Distance Mag. Time & Date
No recent earthquake activity has been reported nearby.
Minimum magnitude displayed is 2.5.

Coastal Water Temperatures

Place Temperature
No Stations Reporting

Nearby Weather Stations